createdAt,value
2022-09-11T00:01:40.567Z,12.60
2022-09-11T00:04:09.296Z,12.60
2022-09-11T00:06:37.394Z,12.60
2022-09-11T00:09:07.825Z,12.90
2022-09-11T00:11:40.341Z,12.90
2022-09-11T00:14:11.010Z,12.70
2022-09-11T00:16:41.311Z,12.50
2022-09-11T00:19:12.498Z,12.50
2022-09-11T00:21:40.811Z,12.60
2022-09-11T00:24:10.082Z,12.50
2022-09-11T00:26:38.696Z,12.50
2022-09-11T00:29:07.065Z,12.60
2022-09-11T00:31:36.619Z,12.60
2022-09-11T00:34:04.876Z,12.90
2022-09-11T00:36:34.987Z,12.70
2022-09-11T00:39:03.408Z,12.60
2022-09-11T00:41:33.356Z,12.70
2022-09-11T00:44:03.743Z,12.80
2022-09-11T00:46:40.650Z,12.80
2022-09-11T00:49:18.929Z,12.80
2022-09-11T00:51:53.088Z,12.60
2022-09-11T00:54:25.875Z,12.60
2022-09-11T00:56:55.484Z,12.60
2022-09-11T00:59:26.994Z,12.50
2022-09-11T01:01:56.730Z,12.40
2022-09-11T01:04:25.085Z,12.40
2022-09-11T01:06:56.809Z,12.40
2022-09-11T01:09:25.596Z,12.40
2022-09-11T01:12:03.803Z,12.30
2022-09-11T01:14:43.325Z,12.40
2022-09-11T01:17:22.451Z,12.50
2022-09-11T01:20:24.721Z,12.50
2022-09-11T01:23:03.371Z,12.50
2022-09-11T01:25:42.450Z,12.70
2022-09-11T01:28:16.546Z,12.80
2022-09-11T01:30:48.157Z,12.80
2022-09-11T01:33:23.549Z,12.80
2022-09-11T01:36:00.203Z,12.80
2022-09-11T01:38:37.870Z,12.80
2022-09-11T01:41:10.713Z,12.70
2022-09-11T01:43:56.964Z,12.60
2022-09-11T01:46:28.440Z,12.60
2022-09-11T01:49:03.971Z,12.60
2022-09-11T01:51:36.224Z,12.50
2022-09-11T01:54:08.132Z,12.60
2022-09-11T01:56:40.929Z,12.80
2022-09-11T01:59:13.631Z,12.90
2022-09-11T02:01:47.890Z,12.80
2022-09-11T02:04:21.965Z,12.50
2022-09-11T02:06:54.376Z,12.70
2022-09-11T02:09:25.225Z,12.80
2022-09-11T02:11:56.815Z,12.70
2022-09-11T02:14:30.771Z,12.60
2022-09-11T02:17:06.861Z,12.50
2022-09-11T02:19:35.231Z,12.30
2022-09-11T02:22:03.366Z,12.20
2022-09-11T02:24:31.493Z,12.30
2022-09-11T02:27:04.173Z,12.30
2022-09-11T02:29:34.462Z,12.20
2022-09-11T02:32:03.842Z,12.50
2022-09-11T02:34:34.879Z,12.70
2022-09-11T02:37:13.898Z,12.90
2022-09-11T02:39:54.975Z,13.10
2022-09-11T02:42:35.352Z,13.20
2022-09-11T02:45:17.704Z,13.10
2022-09-11T02:47:54.819Z,13.30
2022-09-11T02:50:32.483Z,13.20
2022-09-11T02:53:06.477Z,13.20
2022-09-11T02:55:45.623Z,13.30
2022-09-11T02:58:20.822Z,13.00
2022-09-11T03:00:50.422Z,12.50
2022-09-11T03:03:20.676Z,12.50
2022-09-11T03:05:49.055Z,12.80
2022-09-11T03:08:18.583Z,13.00
2022-09-11T03:10:47.050Z,13.30
2022-09-11T03:13:15.291Z,13.60
2022-09-11T03:15:44.568Z,13.60
2022-09-11T03:18:15.829Z,13.60
2022-09-11T03:20:47.122Z,13.50
2022-09-11T03:23:15.747Z,13.40
2022-09-11T03:25:43.992Z,13.30
2022-09-11T03:28:12.279Z,13.30
2022-09-11T03:30:41.968Z,13.40
2022-09-11T03:33:10.170Z,13.60
2022-09-11T03:35:39.758Z,13.80
2022-09-11T03:38:07.882Z,13.10
2022-09-11T03:40:35.967Z,13.20
2022-09-11T03:43:04.102Z,13.00
2022-09-11T03:45:32.447Z,13.00
2022-09-11T03:48:01.207Z,13.20
2022-09-11T03:50:29.319Z,13.40
2022-09-11T03:52:59.366Z,13.40
2022-09-11T03:55:27.555Z,13.20
2022-09-11T03:57:55.606Z,13.30
2022-09-11T04:00:23.825Z,13.30
2022-09-11T04:02:51.861Z,13.50
2022-09-11T04:05:19.941Z,13.50
2022-09-11T04:07:48.916Z,13.70
2022-09-11T04:10:19.597Z,13.90
2022-09-11T04:12:47.677Z,13.90
2022-09-11T04:15:17.099Z,13.90
2022-09-11T04:17:45.319Z,13.90
2022-09-11T04:20:13.953Z,13.60
2022-09-11T04:22:42.019Z,13.70
2022-09-11T04:25:11.033Z,13.70
2022-09-11T04:27:40.429Z,13.60
2022-09-11T04:30:09.878Z,13.50
2022-09-11T04:32:37.954Z,13.50
2022-09-11T04:35:06.975Z,13.70
2022-09-11T04:37:35.492Z,13.80
2022-09-11T04:40:04.136Z,13.80
2022-09-11T04:42:32.373Z,13.90
2022-09-11T04:45:01.870Z,13.80
2022-09-11T04:47:30.110Z,13.60
2022-09-11T04:49:58.472Z,13.80
2022-09-11T04:52:28.022Z,13.80
2022-09-11T04:54:56.305Z,13.90
2022-09-11T04:57:24.387Z,13.80
2022-09-11T04:59:53.042Z,13.70
2022-09-11T05:02:22.890Z,13.70
2022-09-11T05:04:51.340Z,13.50
2022-09-11T05:07:19.431Z,13.70
2022-09-11T05:09:48.008Z,13.60
2022-09-11T05:12:16.079Z,13.50
2022-09-11T05:14:44.618Z,13.50
2022-09-11T05:17:13.463Z,13.50
2022-09-11T05:19:43.280Z,13.50
2022-09-11T05:22:11.395Z,13.60
2022-09-11T05:24:40.384Z,13.80
2022-09-11T05:27:09.790Z,14.00
2022-09-11T05:29:39.177Z,14.10
2022-09-11T05:32:07.249Z,14.00
2022-09-11T05:34:35.501Z,14.00
2022-09-11T05:37:05.430Z,14.20
2022-09-11T05:39:33.601Z,14.00
2022-09-11T05:42:01.599Z,14.10
2022-09-11T05:44:31.049Z,14.00
2022-09-11T05:46:59.333Z,14.20
2022-09-11T05:49:27.742Z,14.40
2022-09-11T05:51:55.877Z,14.20
2022-09-11T05:54:26.314Z,14.40
2022-09-11T05:56:54.633Z,14.50
2022-09-11T05:59:22.784Z,14.30
2022-09-11T06:01:51.015Z,13.80
2022-09-11T06:04:19.565Z,13.90
2022-09-11T06:06:48.722Z,14.00
2022-09-11T06:09:16.958Z,14.30
2022-09-11T06:11:46.605Z,14.50
2022-09-11T06:14:14.695Z,14.50
2022-09-11T06:16:42.843Z,14.40
2022-09-11T06:19:11.014Z,14.70
2022-09-11T06:21:39.234Z,15.00
2022-09-11T06:24:07.912Z,15.10
2022-09-11T06:26:36.502Z,14.80
2022-09-11T06:29:06.201Z,14.70
2022-09-11T06:31:34.378Z,14.70
2022-09-11T06:34:02.490Z,14.90
2022-09-11T06:36:31.591Z,14.70
2022-09-11T06:39:00.115Z,15.50
2022-09-11T06:41:29.075Z,15.40
2022-09-11T06:43:57.409Z,15.40
2022-09-11T06:46:27.134Z,15.80
2022-09-11T06:48:57.582Z,15.90
2022-09-11T06:51:27.166Z,15.20
2022-09-11T06:53:58.042Z,15.90
2022-09-11T06:56:26.972Z,15.60
2022-09-11T06:58:55.531Z,15.80
2022-09-11T07:01:24.335Z,16.10
2022-09-11T07:03:56.007Z,16.20
2022-09-11T07:06:26.238Z,16.20
2022-09-11T07:08:57.017Z,16.70
2022-09-11T07:11:25.488Z,16.20
2022-09-11T07:13:53.980Z,16.70
2022-09-11T07:16:22.244Z,17.50
2022-09-11T07:18:50.646Z,17.20
2022-09-11T07:21:22.199Z,17.50
2022-09-11T07:23:54.442Z,17.80
2022-09-11T07:26:23.873Z,18.00
2022-09-11T07:28:52.750Z,18.70
2022-09-11T07:31:22.449Z,18.00
2022-09-11T07:33:51.972Z,18.70
2022-09-11T07:36:22.845Z,18.80
2022-09-11T07:38:52.077Z,19.00
2022-09-11T07:41:22.301Z,18.70
2022-09-11T07:43:54.759Z,18.20
2022-09-11T07:46:24.075Z,17.80
2022-09-11T07:48:52.403Z,17.60
2022-09-11T07:51:22.278Z,18.90
2022-09-11T07:53:51.834Z,18.00
2022-09-11T07:56:23.189Z,17.60
2022-09-11T07:58:52.396Z,16.90
2022-09-11T08:01:24.480Z,17.70
2022-09-11T08:03:56.942Z,17.80
2022-09-11T08:06:28.048Z,19.40
2022-09-11T08:08:58.063Z,18.60
2022-09-11T08:11:27.363Z,18.80
2022-09-11T08:13:57.317Z,20.00
2022-09-11T08:16:27.809Z,19.40
2022-09-11T08:18:56.069Z,20.40
2022-09-11T08:21:26.420Z,20.30
2022-09-11T08:23:54.945Z,19.10
2022-09-11T08:26:25.273Z,19.20
2022-09-11T08:28:54.988Z,19.00
2022-09-11T08:31:26.959Z,18.90
2022-09-11T08:33:55.792Z,18.80
2022-09-11T08:36:24.621Z,18.80
2022-09-11T08:38:55.413Z,19.20
2022-09-11T08:41:33.430Z,19.70
2022-09-11T08:44:06.535Z,19.40
2022-09-11T08:46:38.027Z,20.10
2022-09-11T08:49:15.912Z,19.80
2022-09-11T08:51:47.154Z,19.50
2022-09-11T08:54:27.711Z,20.00
2022-09-11T08:57:08.238Z,20.10
2022-09-11T08:59:58.025Z,20.10
2022-09-11T09:02:46.867Z,20.00
2022-09-11T09:05:24.140Z,20.40
2022-09-11T09:08:04.937Z,20.70
2022-09-11T09:10:47.522Z,20.90
2022-09-11T09:13:30.336Z,20.90
2022-09-11T09:16:09.657Z,20.60
2022-09-11T09:18:41.831Z,20.00
2022-09-11T09:21:15.595Z,19.90
2022-09-11T09:23:49.358Z,20.90
2022-09-11T09:26:20.966Z,21.00
2022-09-11T09:28:51.863Z,21.00
2022-09-11T09:31:23.435Z,21.20
2022-09-11T09:33:57.201Z,21.60
2022-09-11T09:36:31.459Z,21.20
2022-09-11T09:39:00.248Z,20.10
2022-09-11T09:42:03.080Z,20.70
2022-09-11T09:44:47.330Z,21.90
2022-09-11T09:47:16.139Z,23.30
2022-09-11T09:49:45.354Z,24.70
2022-09-11T09:52:18.930Z,22.00
2022-09-11T09:54:54.403Z,21.80
2022-09-11T09:57:26.014Z,22.60
2022-09-11T10:00:01.487Z,23.00
2022-09-11T10:02:40.995Z,22.80
2022-09-11T10:05:19.284Z,22.20
2022-09-11T10:07:49.131Z,21.90
2022-09-11T10:10:29.584Z,22.40
2022-09-11T10:13:18.598Z,23.00
2022-09-11T10:15:50.210Z,23.30
2022-09-11T10:18:42.725Z,25.10
2022-09-11T10:21:24.046Z,26.60
2022-09-11T10:23:54.790Z,25.90
2022-09-11T10:26:28.931Z,26.00
2022-09-11T10:29:02.955Z,27.80
2022-09-11T10:31:31.210Z,28.10
2022-09-11T10:34:01.566Z,27.40
2022-09-11T10:36:31.719Z,27.10
2022-09-11T10:39:01.752Z,27.90
2022-09-11T10:41:36.256Z,27.80
2022-09-11T10:44:12.053Z,28.30
2022-09-11T10:46:41.594Z,27.20
2022-09-11T10:49:24.605Z,28.60
2022-09-11T10:52:01.901Z,29.30
2022-09-11T10:54:45.894Z,30.30
2022-09-11T10:57:23.678Z,29.60
2022-09-11T11:00:07.844Z,27.50
2022-09-11T11:02:38.467Z,29.10
2022-09-11T11:05:09.177Z,27.10
2022-09-11T11:08:12.119Z,27.90
2022-09-11T11:10:53.508Z,27.40
2022-09-11T11:13:40.189Z,27.90
2022-09-11T11:16:19.647Z,27.30
2022-09-11T11:19:20.074Z,26.10
2022-09-11T11:21:58.453Z,26.90
2022-09-11T11:24:40.461Z,28.10
2022-09-11T11:27:27.067Z,28.80
2022-09-11T11:30:09.610Z,27.90
2022-09-11T11:33:04.284Z,27.30
2022-09-11T11:35:38.156Z,26.60
2022-09-11T11:38:12.543Z,28.00
2022-09-11T11:40:46.201Z,28.70
2022-09-11T11:43:17.449Z,29.50
2022-09-11T11:45:48.524Z,29.90
2022-09-11T11:48:24.286Z,28.90
2022-09-11T11:50:55.602Z,29.90
2022-09-11T11:53:28.728Z,28.00
2022-09-11T11:56:05.801Z,26.60
2022-09-11T11:58:51.183Z,25.90
2022-09-11T12:01:25.179Z,25.10
2022-09-11T12:04:02.625Z,25.00
2022-09-11T12:06:31.318Z,27.20
2022-09-11T12:08:59.718Z,25.50
2022-09-11T12:11:31.639Z,26.20
2022-09-11T12:14:00.372Z,27.90
2022-09-11T12:16:31.719Z,28.20
2022-09-11T12:19:07.665Z,25.30
2022-09-11T12:21:41.274Z,23.60
2022-09-11T12:24:21.546Z,23.00
2022-09-11T12:27:28.653Z,23.30
2022-09-11T12:29:58.114Z,25.60
2022-09-11T12:32:42.971Z,27.90
2022-09-11T12:35:32.791Z,28.50
2022-09-11T12:38:05.407Z,27.80
2022-09-11T12:40:38.982Z,26.40
2022-09-11T12:43:36.379Z,25.30
2022-09-11T12:46:06.711Z,28.10
2022-09-11T12:48:38.776Z,29.90
2022-09-11T12:51:20.659Z,28.40
2022-09-11T12:53:51.926Z,28.20
2022-09-11T12:56:22.866Z,27.70
2022-09-11T12:58:55.981Z,30.40
2022-09-11T13:01:27.232Z,29.80
2022-09-11T13:04:01.000Z,27.90
2022-09-11T13:06:41.982Z,27.70
2022-09-11T13:09:20.966Z,27.40
2022-09-11T13:11:50.971Z,29.10
2022-09-11T13:14:49.110Z,26.80
2022-09-11T13:17:26.609Z,25.80
2022-09-11T13:20:10.532Z,25.40
2022-09-11T13:22:40.221Z,26.30
2022-09-11T13:25:13.636Z,25.80
2022-09-11T13:27:44.350Z,25.20
2022-09-11T13:30:14.948Z,23.50
2022-09-11T13:32:44.328Z,24.20
2022-09-11T13:35:16.863Z,24.50
2022-09-11T13:37:53.252Z,24.70
2022-09-11T13:40:27.063Z,24.00
2022-09-11T13:42:55.410Z,23.20
2022-09-11T13:45:26.294Z,22.50
2022-09-11T13:47:54.517Z,22.50
2022-09-11T13:50:23.864Z,22.10
2022-09-11T13:52:55.142Z,22.00
2022-09-11T13:55:27.064Z,21.80
2022-09-11T13:57:58.531Z,22.50
2022-09-11T14:00:42.768Z,22.40
2022-09-11T14:03:21.493Z,23.00
2022-09-11T14:05:54.978Z,22.50
2022-09-11T14:08:29.317Z,23.10
2022-09-11T14:11:01.185Z,23.20
2022-09-11T14:13:34.108Z,23.80
2022-09-11T14:16:06.561Z,22.80
2022-09-11T14:18:41.839Z,22.50
2022-09-11T14:21:16.594Z,22.90
2022-09-11T14:23:51.007Z,22.70
2022-09-11T14:26:21.465Z,22.80
2022-09-11T14:29:03.971Z,23.30
2022-09-11T14:31:37.867Z,23.40
2022-09-11T14:34:17.804Z,23.80
2022-09-11T14:36:50.096Z,23.90
2022-09-11T14:39:26.585Z,24.20
2022-09-11T14:41:55.852Z,24.80
2022-09-11T14:44:26.033Z,24.20
2022-09-11T14:46:54.983Z,23.70
2022-09-11T14:49:23.574Z,23.80
2022-09-11T14:51:58.081Z,24.10
2022-09-11T14:54:31.056Z,23.90
2022-09-11T14:56:59.431Z,23.90
2022-09-11T14:59:29.477Z,24.00
2022-09-11T15:01:58.542Z,23.90
2022-09-11T15:04:27.566Z,24.00
2022-09-11T15:06:56.686Z,24.10
2022-09-11T15:09:26.903Z,23.90
2022-09-11T15:11:54.964Z,23.70
2022-09-11T15:14:52.014Z,24.10
2022-09-11T15:17:13.412Z,24.00
2022-09-11T15:19:41.941Z,23.70
2022-09-11T15:22:11.690Z,23.20
2022-09-11T15:24:41.092Z,23.10
2022-09-11T15:27:10.535Z,22.80
2022-09-11T15:29:39.440Z,22.70
2022-09-11T15:32:09.336Z,22.90
2022-09-11T15:34:38.657Z,22.50
2022-09-11T15:37:06.988Z,22.90
2022-09-11T15:39:35.404Z,23.10
2022-09-11T15:42:06.052Z,23.10
2022-09-11T15:44:36.668Z,23.50
2022-09-11T15:47:05.069Z,23.60
2022-09-11T15:49:33.315Z,23.30
2022-09-11T15:52:01.528Z,23.50
2022-09-11T15:54:29.509Z,23.10
2022-09-11T15:56:57.629Z,23.10
2022-09-11T15:59:27.063Z,23.50
2022-09-11T16:01:55.420Z,23.20
2022-09-11T16:04:28.252Z,23.20
2022-09-11T16:06:56.725Z,23.30
2022-09-11T16:09:27.392Z,23.40
2022-09-11T16:11:55.873Z,23.70
2022-09-11T16:14:27.810Z,23.70
2022-09-11T16:16:58.452Z,24.00
2022-09-11T16:19:28.406Z,23.60
2022-09-11T16:21:58.051Z,23.50
2022-09-11T16:24:27.731Z,23.50
2022-09-11T16:26:56.474Z,23.20
2022-09-11T16:29:44.037Z,23.30
2022-09-11T16:32:28.051Z,23.50
2022-09-11T16:34:57.261Z,23.40
2022-09-11T16:37:25.867Z,23.30
2022-09-11T16:39:54.016Z,23.30
2022-09-11T16:42:22.124Z,23.30
2022-09-11T16:44:51.574Z,23.20
2022-09-11T16:47:20.131Z,23.20
2022-09-11T16:52:37.249Z,22.90
2022-09-11T16:55:06.635Z,22.70
2022-09-11T16:57:35.435Z,22.50
2022-09-11T17:00:06.705Z,22.40
2022-09-11T17:02:34.869Z,22.30
2022-09-11T17:05:03.608Z,22.50
2022-09-11T17:07:31.772Z,22.50
2022-09-11T17:10:00.018Z,22.30
2022-09-11T17:12:28.047Z,22.20
2022-09-11T17:14:56.123Z,22.10
2022-09-11T17:17:25.796Z,21.90
2022-09-11T17:19:54.524Z,21.70
2022-09-11T17:22:22.511Z,21.60
2022-09-11T17:24:50.633Z,21.60
2022-09-11T17:27:18.663Z,21.50
2022-09-11T17:29:47.280Z,21.40
2022-09-11T17:32:29.137Z,21.30
2022-09-11T17:34:59.379Z,21.20
2022-09-11T17:37:28.210Z,21.10
2022-09-11T17:39:57.885Z,21.10
2022-09-11T17:42:28.779Z,21.00
2022-09-11T17:44:57.332Z,20.90
2022-09-11T17:47:25.667Z,20.80
2022-09-11T17:49:53.814Z,20.70
2022-09-11T17:52:24.311Z,20.40
2022-09-11T17:54:52.380Z,20.40
2022-09-11T17:57:20.558Z,20.30
2022-09-11T17:59:50.395Z,20.20
2022-09-11T18:02:19.744Z,20.00
2022-09-11T18:04:49.055Z,20.10
2022-09-11T18:07:17.315Z,20.10
2022-09-11T18:09:46.943Z,19.90
2022-09-11T18:12:15.196Z,20.00
2022-09-11T18:14:43.844Z,19.90
2022-09-11T18:17:12.073Z,19.70
2022-09-11T18:19:40.365Z,19.60
2022-09-11T18:22:09.827Z,19.40
2022-09-11T18:24:39.749Z,19.20
2022-09-11T18:27:11.552Z,19.20
2022-09-11T18:29:40.649Z,19.10
2022-09-11T18:32:10.089Z,19.00
2022-09-11T18:34:39.163Z,18.90
2022-09-11T18:37:07.700Z,18.70
2022-09-11T18:39:36.110Z,18.40
2022-09-11T18:42:06.314Z,18.20
2022-09-11T18:44:36.088Z,18.00
2022-09-11T18:47:04.211Z,17.90
2022-09-11T18:49:32.602Z,17.70
2022-09-11T18:52:00.707Z,17.60
2022-09-11T18:54:30.017Z,17.30
2022-09-11T18:57:00.036Z,17.00
2022-09-11T18:59:28.497Z,16.80
2022-09-11T19:02:00.128Z,16.70
2022-09-11T19:04:28.368Z,16.40
2022-09-11T19:06:56.467Z,16.20
2022-09-11T19:09:24.502Z,16.00
2022-09-11T19:11:54.704Z,16.00
2022-09-11T19:14:22.788Z,16.00
2022-09-11T19:16:51.676Z,16.00
2022-09-11T19:19:21.550Z,16.10
2022-09-11T19:21:49.595Z,16.10
2022-09-11T19:24:17.668Z,15.90
2022-09-11T19:26:46.175Z,15.90
2022-09-11T19:29:15.830Z,16.00
2022-09-11T19:31:44.025Z,15.90
2022-09-11T19:34:13.214Z,16.00
2022-09-11T19:36:42.846Z,15.90
2022-09-11T19:39:12.259Z,15.80
2022-09-11T19:41:41.213Z,15.50
2022-09-11T19:44:13.135Z,15.30
2022-09-11T19:46:43.019Z,15.30
2022-09-11T19:49:11.795Z,15.40
2022-09-11T19:51:43.007Z,15.50
2022-09-11T19:54:13.514Z,15.30
2022-09-11T19:56:42.385Z,15.10
2022-09-11T19:59:10.911Z,14.90
2022-09-11T20:01:39.187Z,14.80
2022-09-11T20:04:07.303Z,14.60
2022-09-11T20:06:36.502Z,14.50
2022-09-11T20:09:30.322Z,14.50
2022-09-11T20:11:54.978Z,14.30
2022-09-11T20:14:23.374Z,14.40
2022-09-11T20:16:51.511Z,14.30
2022-09-11T20:19:20.558Z,14.20
2022-09-11T20:21:48.606Z,14.30
2022-09-11T20:24:19.759Z,14.30
2022-09-11T20:26:47.889Z,14.20
2022-09-11T20:29:16.730Z,14.10
2022-09-11T20:31:47.995Z,14.30
2022-09-11T20:34:17.318Z,14.10
2022-09-11T20:36:45.533Z,14.10
2022-09-11T20:39:14.369Z,14.00
2022-09-11T20:41:44.237Z,13.90
2022-09-11T20:44:12.756Z,13.90
2022-09-11T20:46:40.994Z,13.90
2022-09-11T20:49:09.211Z,13.80
2022-09-11T20:51:37.319Z,13.70
2022-09-11T20:54:05.826Z,13.80
2022-09-11T20:56:34.090Z,13.90
2022-09-11T20:59:03.537Z,14.00
2022-09-11T21:01:33.348Z,14.10
2022-09-11T21:04:03.379Z,14.10
2022-09-11T21:06:34.034Z,14.20
2022-09-11T21:09:05.669Z,14.30
2022-09-11T21:11:34.745Z,14.40
2022-09-11T21:14:04.725Z,14.60
2022-09-11T21:16:32.889Z,14.60
2022-09-11T21:19:02.627Z,14.60
2022-09-11T21:21:31.459Z,14.50
2022-09-11T21:24:02.302Z,14.40
2022-09-11T21:26:31.305Z,14.20
2022-09-11T21:29:01.970Z,14.00
2022-09-11T21:31:31.388Z,13.90
2022-09-11T21:34:00.278Z,13.80
2022-09-11T21:36:28.690Z,13.70
2022-09-11T21:38:56.723Z,13.70
2022-09-11T21:41:24.725Z,13.70
2022-09-11T21:43:52.892Z,13.80
2022-09-11T21:46:21.338Z,13.90
2022-09-11T21:48:50.760Z,13.70
2022-09-11T21:51:21.144Z,13.70
2022-09-11T21:53:50.980Z,13.70
2022-09-11T21:56:20.643Z,13.50
2022-09-11T21:58:50.413Z,13.50
2022-09-11T22:01:18.607Z,13.50
2022-09-11T22:03:47.053Z,13.40
2022-09-11T22:06:17.118Z,13.30
2022-09-11T22:08:47.257Z,13.30
2022-09-11T22:11:16.151Z,13.30
2022-09-11T22:13:44.679Z,13.40
2022-09-11T22:16:14.597Z,13.20
2022-09-11T22:18:43.305Z,13.40
2022-09-11T22:21:11.795Z,13.40
2022-09-11T22:23:41.473Z,13.40
2022-09-11T22:26:12.025Z,13.40
2022-09-11T22:28:41.484Z,13.40
2022-09-11T22:31:10.330Z,13.40
2022-09-11T22:33:40.967Z,13.40
2022-09-11T22:36:11.421Z,13.20
2022-09-11T22:38:41.081Z,13.40
2022-09-11T22:41:09.163Z,13.30
2022-09-11T22:43:37.559Z,13.30
2022-09-11T22:46:05.759Z,13.30
2022-09-11T22:48:34.346Z,13.20
2022-09-11T22:51:02.671Z,13.10
2022-09-11T22:53:31.501Z,12.80
2022-09-11T22:56:01.481Z,12.80
2022-09-11T22:58:31.680Z,12.70
2022-09-11T23:01:02.462Z,12.60
2022-09-11T23:03:30.883Z,12.60
2022-09-11T23:06:17.587Z,12.60
2022-09-11T23:08:47.232Z,12.50
2022-09-11T23:11:19.811Z,12.40
2022-09-11T23:13:49.212Z,12.40
2022-09-11T23:16:19.247Z,12.40
2022-09-11T23:18:48.233Z,12.50
2022-09-11T23:21:16.854Z,12.30
2022-09-11T23:23:45.302Z,12.20
2022-09-11T23:26:16.021Z,12.10
2022-09-11T23:28:44.240Z,12.00
2022-09-11T23:31:13.952Z,12.00
2022-09-11T23:33:42.756Z,12.20
2022-09-11T23:36:12.552Z,12.40
2022-09-11T23:38:40.996Z,12.60
2022-09-11T23:41:08.999Z,12.60
2022-09-11T23:43:38.423Z,12.70
2022-09-11T23:46:06.718Z,12.70
2022-09-11T23:48:35.466Z,12.70
2022-09-11T23:51:03.669Z,12.80
2022-09-11T23:53:32.081Z,12.60
2022-09-11T23:56:00.120Z,12.40
2022-09-11T23:58:28.189Z,12.20
